createdAt,value
2023-04-01T00:01:05.759Z,9.69
2023-04-01T00:03:36.506Z,9.10
2023-04-01T00:06:06.126Z,9.14
2023-04-01T00:08:35.208Z,9.31
2023-04-01T00:11:04.631Z,9.33
2023-04-01T00:13:35.050Z,9.36
2023-04-01T00:16:20.880Z,9.52
2023-04-01T00:18:51.650Z,9.53
2023-04-01T00:21:23.080Z,9.48
2023-04-01T00:23:52.784Z,9.40
2023-04-01T00:26:23.046Z,9.51
2023-04-01T00:28:54.036Z,9.48
2023-04-01T00:31:23.316Z,9.12
2023-04-01T00:33:53.853Z,9.22
2023-04-01T00:36:24.351Z,9.21
2023-04-01T00:38:53.796Z,9.46
2023-04-01T00:41:25.081Z,9.41
2023-04-01T00:44:20.939Z,9.99
2023-04-01T00:46:50.806Z,9.59
2023-04-01T00:49:22.919Z,9.69
2023-04-01T00:51:54.539Z,9.49
2023-04-01T00:54:26.517Z,9.41
2023-04-01T00:57:01.961Z,9.49
2023-04-01T00:59:36.750Z,9.28
2023-04-01T01:02:13.025Z,9.79
2023-04-01T01:04:43.030Z,9.59
2023-04-01T01:07:21.769Z,9.77
2023-04-01T01:10:00.205Z,9.65
2023-04-01T01:12:37.800Z,9.77
2023-04-01T01:15:16.426Z,9.65
2023-04-01T01:17:54.053Z,9.70
2023-04-01T01:20:44.977Z,9.69
2023-04-01T01:23:39.871Z,9.59
2023-04-01T01:26:35.710Z,9.58
2023-04-01T01:29:15.855Z,9.47
2023-04-01T01:31:58.369Z,9.60
2023-04-01T01:34:37.489Z,9.61
2023-04-01T01:37:12.290Z,9.46
2023-04-01T01:39:44.441Z,9.59
2023-04-01T01:42:18.156Z,9.48
2023-04-01T01:44:50.878Z,9.58
2023-04-01T01:47:22.156Z,9.70
2023-04-01T01:49:53.494Z,9.63
2023-04-01T01:52:25.669Z,9.73
2023-04-01T01:54:56.608Z,9.61
2023-04-01T01:57:31.083Z,9.57
2023-04-01T02:00:09.305Z,9.56
2023-04-01T02:02:42.293Z,9.54
2023-04-01T02:05:17.696Z,9.37
2023-04-01T02:07:55.583Z,9.57
2023-04-01T02:10:33.104Z,9.54
2023-04-01T02:13:07.546Z,9.23
2023-04-01T02:15:50.600Z,9.62
2023-04-01T02:18:38.625Z,9.39
2023-04-01T02:21:11.501Z,9.24
2023-04-01T02:23:42.635Z,9.44
2023-04-01T02:26:13.807Z,9.30
2023-04-01T02:28:45.869Z,9.43
2023-04-01T02:31:17.430Z,9.43
2023-04-01T02:33:49.962Z,9.01
2023-04-01T02:36:19.470Z,9.44
2023-04-01T02:38:51.954Z,9.51
2023-04-01T02:41:21.929Z,9.31
2023-04-01T02:43:51.369Z,9.64
2023-04-01T02:46:23.864Z,9.39
2023-04-01T02:48:53.398Z,9.40
2023-04-01T02:51:22.586Z,9.27
2023-04-01T02:58:11.237Z,8.46
2023-04-01T03:00:41.036Z,9.07
2023-04-01T03:03:11.574Z,9.04
2023-04-01T03:05:40.504Z,9.02
2023-04-01T03:08:09.652Z,9.29
2023-04-01T03:10:40.066Z,9.21
2023-04-01T03:13:13.094Z,9.32
2023-04-01T03:15:42.390Z,9.16
2023-04-01T03:18:11.567Z,9.39
2023-04-01T03:20:41.007Z,9.57
2023-04-01T03:23:10.044Z,9.44
2023-04-01T03:25:40.413Z,9.56
2023-04-01T03:28:09.792Z,9.37
2023-04-01T03:30:42.686Z,9.09
2023-04-01T03:33:12.266Z,9.29
2023-04-01T03:35:44.207Z,9.61
2023-04-01T03:38:13.409Z,9.47
2023-04-01T03:40:46.103Z,9.56
2023-04-01T03:43:15.152Z,9.54
2023-04-01T03:45:49.020Z,9.41
2023-04-01T03:48:18.070Z,9.87
2023-04-01T03:50:47.347Z,9.41
2023-04-01T03:53:20.370Z,9.52
2023-04-01T03:55:52.365Z,9.74
2023-04-01T03:58:21.790Z,9.08
2023-04-01T04:00:51.862Z,9.29
2023-04-01T04:03:22.320Z,9.30
2023-04-01T04:05:52.067Z,9.32
2023-04-01T04:08:22.776Z,9.48
2023-04-01T04:10:59.063Z,9.48
2023-04-01T04:13:28.438Z,9.34
2023-04-01T04:16:04.584Z,9.49
2023-04-01T04:18:34.988Z,9.11
2023-04-01T04:21:07.052Z,9.37
2023-04-01T04:23:39.486Z,9.20
2023-04-01T04:26:14.653Z,9.37
2023-04-01T04:28:50.117Z,9.42
2023-04-01T04:31:25.592Z,9.54
2023-04-01T04:33:57.923Z,9.29
2023-04-01T04:39:21.514Z,9.33
2023-04-01T04:42:21.801Z,10.00
2023-04-01T04:45:04.161Z,9.99
2023-04-01T04:47:46.560Z,10.54
2023-04-01T04:50:24.037Z,9.53
2023-04-01T04:52:54.174Z,9.89
2023-04-01T04:55:23.951Z,10.05
2023-04-01T04:58:09.855Z,10.55
2023-04-01T05:00:41.909Z,10.05
2023-04-01T05:03:19.609Z,10.70
2023-04-01T05:05:53.213Z,10.57
2023-04-01T05:08:31.876Z,10.71
2023-04-01T05:11:20.671Z,10.81
2023-04-01T05:13:52.296Z,10.80
2023-04-01T05:16:23.040Z,11.00
2023-04-01T05:18:52.459Z,11.40
2023-04-01T05:21:21.591Z,11.52
2023-04-01T05:23:51.800Z,11.96
2023-04-01T05:26:21.764Z,12.05
2023-04-01T05:28:52.450Z,12.08
2023-04-01T05:31:25.260Z,12.26
2023-04-01T05:33:57.894Z,11.53
2023-04-01T05:36:33.285Z,11.92
2023-04-01T05:39:02.934Z,10.93
2023-04-01T05:41:34.414Z,11.19
2023-04-01T05:44:34.774Z,11.51
2023-04-01T05:47:10.156Z,11.47
2023-04-01T05:49:40.169Z,12.15
2023-04-01T05:52:13.771Z,11.62
2023-04-01T05:54:43.517Z,11.74
2023-04-01T05:57:16.096Z,11.78
2023-04-01T05:59:47.788Z,11.79
2023-04-01T06:02:24.465Z,12.54
2023-04-01T06:05:04.797Z,12.33
2023-04-01T06:07:37.729Z,12.49
2023-04-01T06:10:22.337Z,12.68
2023-04-01T06:13:01.457Z,13.07
2023-04-01T06:15:44.273Z,12.88
2023-04-01T06:18:37.513Z,12.85
2023-04-01T06:21:24.754Z,13.27
2023-04-01T06:24:25.478Z,11.37
2023-04-01T06:27:05.946Z,11.74
2023-04-01T06:30:03.141Z,11.48
2023-04-01T06:32:56.650Z,12.43
2023-04-01T06:35:52.957Z,12.19
2023-04-01T06:39:02.889Z,12.52
2023-04-01T06:42:11.402Z,12.34
2023-04-01T06:44:56.980Z,12.44
2023-04-01T06:48:02.108Z,12.64
2023-04-01T06:51:04.355Z,13.37
2023-04-01T06:54:07.145Z,13.20
2023-04-01T06:57:12.370Z,13.65
2023-04-01T06:59:43.007Z,13.98
2023-04-01T07:02:25.379Z,14.02
2023-04-01T07:05:03.214Z,14.60
2023-04-01T07:07:40.452Z,14.62
2023-04-01T07:10:19.834Z,14.37
2023-04-01T07:13:32.200Z,14.22
2023-04-01T07:16:18.995Z,13.77
2023-04-01T07:18:53.790Z,14.03
2023-04-01T07:21:41.286Z,14.29
2023-04-01T07:24:26.878Z,13.80
2023-04-01T07:27:12.798Z,13.47
2023-04-01T07:29:43.544Z,13.41
2023-04-01T07:32:30.674Z,13.15
2023-04-01T07:35:11.898Z,13.45
2023-04-01T07:38:01.560Z,13.20
2023-04-01T07:40:50.886Z,12.94
2023-04-01T07:43:47.203Z,13.00
2023-04-01T07:46:44.354Z,13.05
2023-04-01T07:49:21.197Z,13.45
2023-04-01T07:52:02.646Z,13.69
2023-04-01T07:54:45.031Z,14.20
2023-04-01T07:57:23.527Z,14.47
2023-04-01T08:00:04.228Z,14.67
2023-04-01T08:03:18.254Z,14.65
2023-04-01T08:06:03.998Z,15.15
2023-04-01T08:08:57.493Z,14.38
2023-04-01T08:12:06.780Z,15.14
2023-04-01T08:15:08.677Z,15.15
2023-04-01T08:17:47.015Z,14.81
2023-04-01T08:20:35.959Z,15.01
2023-04-01T08:23:15.705Z,15.28
2023-04-01T08:26:00.816Z,14.70
2023-04-01T08:28:41.820Z,14.17
2023-04-01T08:31:18.553Z,14.70
2023-04-01T08:33:49.797Z,14.08
2023-04-01T08:36:24.517Z,14.29
2023-04-01T08:39:13.812Z,15.01
2023-04-01T08:42:10.638Z,15.34
2023-04-01T08:45:12.021Z,15.46
2023-04-01T08:48:13.833Z,15.27
2023-04-01T08:51:06.504Z,15.10
2023-04-01T08:53:55.033Z,15.17
2023-04-01T08:56:34.193Z,15.17
2023-04-01T08:59:34.824Z,15.98
2023-04-01T09:02:48.326Z,16.29
2023-04-01T09:06:14.009Z,16.16
2023-04-01T09:09:23.124Z,15.32
2023-04-01T09:12:34.941Z,15.86
2023-04-01T09:15:40.566Z,16.87
2023-04-01T09:18:51.955Z,17.13
2023-04-01T09:22:03.767Z,17.61
2023-04-01T09:25:13.115Z,17.66
2023-04-01T09:27:49.508Z,17.82
2023-04-01T09:30:44.189Z,17.06
2023-04-01T09:33:42.948Z,17.30
2023-04-01T09:36:27.286Z,17.98
2023-04-01T09:39:02.223Z,17.52
2023-04-01T09:41:47.319Z,17.42
2023-04-01T09:44:33.138Z,16.39
2023-04-01T09:47:28.064Z,16.82
2023-04-01T09:50:19.639Z,16.93
2023-04-01T09:52:56.941Z,17.21
2023-04-01T09:56:08.821Z,16.93
2023-04-01T09:59:23.008Z,17.99
2023-04-01T10:03:03.445Z,17.57
2023-04-01T10:06:03.932Z,17.93
2023-04-01T10:09:06.502Z,17.88
2023-04-01T10:12:06.260Z,17.79
2023-04-01T10:15:17.186Z,18.80
2023-04-01T10:18:18.456Z,18.71
2023-04-01T10:21:09.852Z,18.36
2023-04-01T10:24:09.679Z,17.99
2023-04-01T10:27:19.131Z,17.99
2023-04-01T10:30:43.467Z,20.26
2023-04-01T10:33:49.530Z,21.93
2023-04-01T10:36:50.253Z,20.99
2023-04-01T10:40:08.350Z,20.94
2023-04-01T10:43:48.918Z,21.87
2023-04-01T10:46:56.104Z,22.85
2023-04-01T10:49:49.056Z,22.91
2023-04-01T10:52:49.831Z,20.59
2023-04-01T10:56:13.701Z,20.70
2023-04-01T10:59:33.713Z,20.41
2023-04-01T11:02:53.317Z,21.48
2023-04-01T11:06:11.053Z,21.04
2023-04-01T11:09:19.432Z,20.10
2023-04-01T11:12:19.040Z,22.19
2023-04-01T11:15:29.216Z,20.90
2023-04-01T11:18:48.041Z,21.14
2023-04-01T11:21:50.693Z,22.37
2023-04-01T11:24:53.199Z,21.68
2023-04-01T11:28:06.348Z,20.60
2023-04-01T11:31:09.955Z,20.61
2023-04-01T11:33:49.688Z,19.83
2023-04-01T11:36:28.296Z,19.99
2023-04-01T11:39:23.025Z,19.21
2023-04-01T11:42:19.843Z,18.90
2023-04-01T11:45:26.639Z,18.27
2023-04-01T11:48:25.482Z,18.00
2023-04-01T11:51:07.434Z,18.09
2023-04-01T11:53:50.929Z,18.11
2023-04-01T11:56:32.886Z,18.08
2023-04-01T11:59:22.868Z,17.93
2023-04-01T12:02:21.368Z,18.10
2023-04-01T12:05:02.977Z,18.17
2023-04-01T12:08:04.765Z,17.91
2023-04-01T12:10:42.333Z,17.99
2023-04-01T12:13:26.076Z,18.10
2023-04-01T12:16:11.452Z,18.61
2023-04-01T12:18:52.588Z,18.92
2023-04-01T12:21:33.146Z,19.25
2023-04-01T12:24:28.150Z,18.24
2023-04-01T12:27:09.288Z,18.73
2023-04-01T12:30:03.093Z,18.37
2023-04-01T12:32:37.714Z,17.97
2023-04-01T12:35:22.092Z,18.27
2023-04-01T12:38:05.442Z,18.48
2023-04-01T12:40:57.809Z,18.42
2023-04-01T12:43:51.666Z,18.07
2023-04-01T12:46:28.264Z,17.30
2023-04-01T12:49:22.613Z,16.78
2023-04-01T12:52:09.488Z,16.90
2023-04-01T12:55:17.467Z,17.21
2023-04-01T12:58:19.713Z,17.61
2023-04-01T13:01:06.177Z,17.25
2023-04-01T13:03:55.667Z,17.38
2023-04-01T13:06:42.438Z,18.13
2023-04-01T13:09:26.161Z,17.62
2023-04-01T13:12:08.583Z,17.48
2023-04-01T13:15:22.527Z,17.72
2023-04-01T13:17:59.888Z,16.77
2023-04-01T13:20:43.670Z,16.83
2023-04-01T13:23:38.457Z,17.19
2023-04-01T13:26:18.577Z,17.46
2023-04-01T13:28:56.107Z,17.51
2023-04-01T13:31:51.787Z,17.52
2023-04-01T13:34:34.607Z,17.55
2023-04-01T13:37:21.292Z,17.40
2023-04-01T13:40:07.217Z,18.62
2023-04-01T13:42:42.814Z,18.59
2023-04-01T13:45:18.542Z,19.47
2023-04-01T13:48:22.098Z,18.71
2023-04-01T13:51:20.675Z,18.83
2023-04-01T13:54:12.023Z,18.90
2023-04-01T13:56:50.952Z,18.39
2023-04-01T13:59:48.871Z,18.11
2023-04-01T14:02:39.946Z,18.01
2023-04-01T14:05:43.470Z,17.84
2023-04-01T14:08:20.059Z,17.36
2023-04-01T14:11:01.253Z,17.26
2023-04-01T14:13:37.215Z,16.83
2023-04-01T14:16:24.858Z,16.88
2023-04-01T14:19:06.533Z,16.35
2023-04-01T14:21:40.305Z,16.58
2023-04-01T14:24:34.072Z,16.71
2023-04-01T14:27:33.987Z,16.47
2023-04-01T14:30:22.677Z,16.38
2023-04-01T14:33:03.350Z,16.30
2023-04-01T14:35:39.996Z,16.47
2023-04-01T14:38:45.785Z,16.29
2023-04-01T14:41:30.903Z,16.75
2023-04-01T14:44:40.947Z,17.27
2023-04-01T14:47:26.867Z,17.09
2023-04-01T14:50:09.078Z,16.76
2023-04-01T14:52:42.728Z,16.90
2023-04-01T14:55:28.683Z,16.58
2023-04-01T14:58:06.975Z,16.58
2023-04-01T15:00:50.037Z,16.68
2023-04-01T15:03:24.629Z,16.38
2023-04-01T15:06:03.330Z,16.52
2023-04-01T15:08:46.500Z,15.99
2023-04-01T15:11:35.492Z,16.54
2023-04-01T15:14:20.935Z,16.45
2023-04-01T15:17:07.831Z,16.20
2023-04-01T15:19:49.173Z,16.16
2023-04-01T15:22:44.148Z,16.04
2023-04-01T15:25:36.200Z,16.03
2023-04-01T15:28:16.926Z,15.77
2023-04-01T15:30:56.639Z,15.33
2023-04-01T15:33:56.602Z,15.79
2023-04-01T15:36:41.452Z,15.40
2023-04-01T15:39:22.862Z,15.81
2023-04-01T15:42:16.049Z,15.58
2023-04-01T15:44:58.111Z,14.97
2023-04-01T15:47:48.612Z,15.76
2023-04-01T15:50:59.391Z,15.35
2023-04-01T15:56:53.895Z,15.00
2023-04-01T15:59:55.822Z,14.93
2023-04-01T16:02:33.758Z,15.06
2023-04-01T16:05:12.817Z,14.85
2023-04-01T16:07:57.726Z,15.08
2023-04-01T16:10:55.318Z,15.02
2023-04-01T16:13:37.290Z,14.30
2023-04-01T16:16:19.555Z,14.24
2023-04-01T16:19:12.820Z,14.23
2023-04-01T16:21:49.520Z,14.30
2023-04-01T16:24:26.556Z,14.39
2023-04-01T16:27:05.365Z,14.04
2023-04-01T16:29:43.225Z,14.24
2023-04-01T16:32:23.503Z,14.09
2023-04-01T16:35:06.374Z,14.18
2023-04-01T16:37:41.382Z,13.81
2023-04-01T16:40:25.342Z,14.26
2023-04-01T16:42:58.475Z,13.99
2023-04-01T16:45:37.738Z,14.12
2023-04-01T16:48:13.891Z,13.88
2023-04-01T16:50:56.953Z,13.88
2023-04-01T16:53:39.878Z,14.11
2023-04-01T16:56:15.971Z,14.28
2023-04-01T16:59:00.560Z,14.45
2023-04-01T17:01:42.432Z,14.35
2023-04-01T17:04:21.616Z,14.02
2023-04-01T17:07:00.430Z,14.13
2023-04-01T17:09:44.645Z,13.94
2023-04-01T17:12:22.294Z,13.98
2023-04-01T17:15:02.532Z,13.89
2023-04-01T17:17:42.838Z,13.78
2023-04-01T17:20:33.911Z,13.95
2023-04-01T17:23:16.900Z,13.82
2023-04-01T17:26:06.276Z,13.43
2023-04-01T17:28:51.664Z,13.09
2023-04-01T17:31:39.271Z,13.76
2023-04-01T17:34:40.665Z,13.66
2023-04-01T17:37:31.333Z,13.13
2023-04-01T17:40:18.474Z,12.63
2023-04-01T17:42:59.360Z,12.88
2023-04-01T17:45:35.942Z,13.51
2023-04-01T17:48:22.788Z,12.30
2023-04-01T17:51:06.575Z,12.28
2023-04-01T17:53:44.915Z,13.12
2023-04-01T17:56:50.643Z,13.06
2023-04-01T17:59:27.369Z,13.27
2023-04-01T18:02:10.025Z,13.41
2023-04-01T18:05:19.194Z,13.05
2023-04-01T18:08:14.869Z,12.57
2023-04-01T18:10:58.897Z,12.75
2023-04-01T18:14:03.079Z,12.73
2023-04-01T18:16:46.793Z,12.62
2023-04-01T18:19:26.185Z,12.66
2023-04-01T18:21:59.617Z,12.75
2023-04-01T18:24:35.572Z,12.41
2023-04-01T18:27:14.544Z,12.24
2023-04-01T18:29:51.932Z,12.68
2023-04-01T18:32:35.854Z,12.66
2023-04-01T18:35:18.479Z,12.77
2023-04-01T18:37:56.856Z,12.26
2023-04-01T18:40:35.982Z,12.66
2023-04-01T18:43:15.231Z,12.61
2023-04-01T18:45:53.351Z,12.26
2023-04-01T18:48:46.744Z,12.44
2023-04-01T18:51:27.218Z,12.62
2023-04-01T18:54:14.925Z,12.55
2023-04-01T18:56:51.201Z,12.30
2023-04-01T18:59:31.713Z,12.78
2023-04-01T19:02:11.272Z,12.53
2023-04-01T19:04:59.199Z,12.22
2023-04-01T19:07:52.437Z,12.15
2023-04-01T19:10:32.531Z,12.60
2023-04-01T19:13:18.217Z,12.22
2023-04-01T19:15:55.295Z,12.32
2023-04-01T19:18:56.666Z,12.02
2023-04-01T19:21:30.899Z,12.10
2023-04-01T19:24:29.576Z,11.84
2023-04-01T19:27:05.523Z,11.64
2023-04-01T19:29:51.486Z,11.78
2023-04-01T19:32:35.589Z,11.92
2023-04-01T19:35:20.185Z,11.87
2023-04-01T19:37:56.908Z,11.92
2023-04-01T19:40:48.252Z,12.04
2023-04-01T19:43:35.673Z,12.13
2023-04-01T19:46:15.178Z,11.97
2023-04-01T19:48:58.543Z,11.89
2023-04-01T19:51:34.974Z,11.74
2023-04-01T19:54:20.490Z,11.90
2023-04-01T19:56:54.753Z,11.95
2023-04-01T19:59:32.626Z,12.01
2023-04-01T20:02:29.888Z,11.95
2023-04-01T20:05:06.504Z,12.04
2023-04-01T20:07:43.118Z,11.82
2023-04-01T20:10:18.921Z,11.98
2023-04-01T20:12:58.831Z,11.88
2023-04-01T20:15:35.789Z,12.06
2023-04-01T20:18:18.598Z,11.79
2023-04-01T20:21:01.765Z,11.72
2023-04-01T20:23:44.174Z,11.88
2023-04-01T20:26:17.537Z,12.01
2023-04-01T20:29:01.016Z,11.53
2023-04-01T20:31:39.671Z,11.67
2023-04-01T20:34:41.962Z,11.58
2023-04-01T20:37:26.871Z,11.64
2023-04-01T20:40:35.862Z,11.74
2023-04-01T20:43:43.969Z,11.76
2023-04-01T20:49:52.883Z,11.55
2023-04-01T20:52:32.176Z,11.88
2023-04-01T20:55:24.864Z,10.73
2023-04-01T20:58:31.738Z,11.57
2023-04-01T21:01:15.762Z,11.38
2023-04-01T21:07:39.120Z,11.25
2023-04-01T21:10:25.647Z,11.43
2023-04-01T21:13:06.146Z,11.63
2023-04-01T21:20:48.377Z,11.64
2023-04-01T21:20:50.475Z,11.76
2023-04-01T21:23:34.276Z,11.62
2023-04-01T21:31:47.495Z,11.59
2023-04-01T21:34:40.501Z,11.85
2023-04-01T21:37:32.049Z,11.74
2023-04-01T21:40:38.138Z,11.27
2023-04-01T21:43:20.065Z,11.78
2023-04-01T21:46:09.185Z,11.54
2023-04-01T21:49:04.157Z,11.76
2023-04-01T21:51:59.831Z,11.83
2023-04-01T21:54:53.313Z,11.77
2023-04-01T21:58:03.605Z,12.03
2023-04-01T22:00:35.013Z,11.85
2023-04-01T22:03:36.927Z,11.93
2023-04-01T22:06:18.479Z,11.88
2023-04-01T22:08:56.669Z,11.89
2023-04-01T22:11:36.535Z,11.67
2023-04-01T22:14:16.140Z,11.85
2023-04-01T22:16:51.262Z,11.77
2023-04-01T22:19:29.937Z,11.57
2023-04-01T22:22:06.358Z,11.90
2023-04-01T22:24:46.147Z,11.94
2023-04-01T22:27:31.948Z,11.93
2023-04-01T22:30:12.141Z,11.91
2023-04-01T22:32:47.372Z,12.01
2023-04-01T22:35:32.806Z,11.80
2023-04-01T22:38:16.916Z,11.82
2023-04-01T22:40:51.353Z,12.08
2023-04-01T22:43:32.290Z,11.81
2023-04-01T22:46:18.640Z,11.75
2023-04-01T22:48:55.071Z,11.50
2023-04-01T22:51:32.760Z,11.76
2023-04-01T22:54:10.163Z,11.79
2023-04-01T22:56:43.187Z,11.88
2023-04-01T22:59:18.247Z,11.68
2023-04-01T23:01:56.300Z,11.81
2023-04-01T23:04:31.715Z,11.77
2023-04-01T23:07:06.136Z,11.62
2023-04-01T23:09:38.008Z,11.69
2023-04-01T23:12:11.601Z,11.65
2023-04-01T23:14:49.132Z,11.61
2023-04-01T23:17:34.158Z,11.71
2023-04-01T23:23:56.157Z,10.82
2023-04-01T23:26:36.464Z,10.66
2023-04-01T23:29:41.001Z,11.07
2023-04-01T23:32:18.333Z,10.55
2023-04-01T23:35:00.770Z,10.29
2023-04-01T23:37:30.496Z,10.46
2023-04-01T23:40:02.265Z,11.07
2023-04-01T23:42:35.272Z,10.80
2023-04-01T23:45:15.521Z,11.55
2023-04-01T23:47:45.678Z,11.33
2023-04-01T23:50:20.394Z,11.54
2023-04-01T23:52:59.805Z,11.50
2023-04-01T23:55:33.526Z,11.54
2023-04-01T23:58:11.954Z,11.42
